createdAt,value
2017-09-15T00:00:28.308Z,90.69
2017-09-15T00:01:08.878Z,90.59
2017-09-15T00:01:49.432Z,90.5
2017-09-15T00:02:30.004Z,90.41
2017-09-15T00:03:10.570Z,90.5
2017-09-15T00:03:51.126Z,90.31
2017-09-15T00:04:31.687Z,90.41
2017-09-15T00:05:12.262Z,90.69
2017-09-15T00:05:52.851Z,90.69
2017-09-15T00:06:33.418Z,90.79
2017-09-15T00:07:13.977Z,91.17
2017-09-15T00:07:54.540Z,90.79
2017-09-15T00:08:35.096Z,90.69
2017-09-15T00:09:15.667Z,91.27
2017-09-15T00:09:56.243Z,91.17
2017-09-15T00:10:36.828Z,90.79
2017-09-15T00:11:17.379Z,91.17
2017-09-15T00:11:58.013Z,91.07
2017-09-15T00:12:38.568Z,91.55
2017-09-15T00:13:19.144Z,91.55
2017-09-15T00:13:59.710Z,91.83
2017-09-15T00:14:40.326Z,91.36
2017-09-15T00:15:20.895Z,91.36
2017-09-15T00:16:01.482Z,91.07
2017-09-15T00:16:42.043Z,91.46
2017-09-15T00:17:22.602Z,91.55
2017-09-15T00:18:03.157Z,91.55
2017-09-15T00:18:43.723Z,91.17
2017-09-15T00:19:24.329Z,91.36
2017-09-15T00:20:04.889Z,91.36
2017-09-15T00:20:45.472Z,91.36
2017-09-15T00:21:26.029Z,91.64
2017-09-15T00:22:06.628Z,91.74
2017-09-15T00:22:47.185Z,91.46
2017-09-15T00:23:27.793Z,90.98
2017-09-15T00:24:08.369Z,91.27
2017-09-15T00:24:48.942Z,91.07
2017-09-15T00:25:29.512Z,91.07
2017-09-15T00:26:10.086Z,90.98
2017-09-15T00:26:50.636Z,91.17
2017-09-15T00:27:31.189Z,91.17
2017-09-15T00:28:11.770Z,91.27
2017-09-15T00:28:52.326Z,91.17
2017-09-15T00:29:32.894Z,91.27
2017-09-15T00:30:13.601Z,91.07
2017-09-15T00:30:54.158Z,91.36
2017-09-15T00:31:34.738Z,91.07
2017-09-15T00:32:15.291Z,91.36
2017-09-15T00:32:55.861Z,91.27
2017-09-15T00:33:36.423Z,91.27
2017-09-15T00:34:16.987Z,91.27
2017-09-15T00:34:57.545Z,91.27
2017-09-15T00:35:38.152Z,91.07
2017-09-15T00:36:18.700Z,90.88
2017-09-15T00:36:59.299Z,91.17
2017-09-15T00:37:39.867Z,91.27
2017-09-15T00:38:20.428Z,91.36
2017-09-15T00:39:00.991Z,91.27
2017-09-15T00:39:41.563Z,90.88
2017-09-15T00:40:22.122Z,90.88
2017-09-15T00:41:02.694Z,91.36
2017-09-15T00:41:43.257Z,90.98
2017-09-15T00:42:23.833Z,90.79
2017-09-15T00:43:04.402Z,90.88
2017-09-15T00:43:44.968Z,91.27
2017-09-15T00:44:25.527Z,91.07
2017-09-15T00:45:06.091Z,90.79
2017-09-15T00:45:46.681Z,90.73
2017-09-15T00:46:27.236Z,90.73
2017-09-15T00:47:07.824Z,90.69
2017-09-15T00:47:48.404Z,90.88
2017-09-15T00:48:28.996Z,90.59
2017-09-15T00:49:09.557Z,90.55
2017-09-15T00:49:50.120Z,90.83
2017-09-15T00:50:30.680Z,91.12
2017-09-15T00:51:11.230Z,90.83
2017-09-15T00:51:51.797Z,90.64
2017-09-15T00:52:32.354Z,90.55
2017-09-15T00:53:12.945Z,90.98
2017-09-15T00:53:53.499Z,90.36
2017-09-15T00:54:34.078Z,90.55
2017-09-15T00:55:14.644Z,90.59
2017-09-15T00:55:55.204Z,90.73
2017-09-15T00:56:35.763Z,90.88
2017-09-15T00:57:16.336Z,90.93
2017-09-15T00:57:56.917Z,91.31
2017-09-15T00:58:37.482Z,90.79
2017-09-15T00:59:18.040Z,90.55
2017-09-15T00:59:58.605Z,90.5
2017-09-15T01:00:39.162Z,91.21
2017-09-15T01:01:19.712Z,91.27
2017-09-15T01:02:00.288Z,91.5
2017-09-15T01:02:40.907Z,91.21
2017-09-15T01:03:21.481Z,91.41
2017-09-15T01:04:02.042Z,91.02
2017-09-15T01:04:42.612Z,90.93
2017-09-15T01:05:23.173Z,91.02
2017-09-15T01:06:03.731Z,91.21
2017-09-15T01:06:44.323Z,91.31
2017-09-15T01:07:24.868Z,91.12
2017-09-15T01:08:05.471Z,90.93
2017-09-15T01:08:46.032Z,90.93
2017-09-15T01:09:26.619Z,90.64
2017-09-15T01:10:07.214Z,90.64
2017-09-15T01:10:47.797Z,90.73
2017-09-15T01:11:28.355Z,90.93
2017-09-15T01:12:08.929Z,90.64
2017-09-15T01:12:49.504Z,90.55
2017-09-15T01:13:30.084Z,90.55
2017-09-15T01:14:10.641Z,90.17
2017-09-15T01:14:51.205Z,90.45
2017-09-15T01:15:31.765Z,90.55
2017-09-15T01:16:12.353Z,90.36
2017-09-15T01:16:52.912Z,90.73
2017-09-15T01:17:33.467Z,90.55
2017-09-15T01:18:14.025Z,90.64
2017-09-15T01:18:54.580Z,90.45
2017-09-15T01:19:35.142Z,90.36
2017-09-15T01:20:15.706Z,90.55
2017-09-15T01:20:56.264Z,90.36
2017-09-15T01:21:36.821Z,90.36
2017-09-15T01:22:17.402Z,90.45
2017-09-15T01:22:57.951Z,90.64
2017-09-15T01:23:38.532Z,90.64
2017-09-15T01:24:23.093Z,90.55
2017-09-15T01:25:04.191Z,90.64
2017-09-15T01:25:44.784Z,89.97
2017-09-15T01:26:25.344Z,90.36
2017-09-15T01:27:05.910Z,90.55
2017-09-15T01:27:46.458Z,90.26
2017-09-15T01:28:27.012Z,90.73
2017-09-15T01:29:07.579Z,90.26
2017-09-15T01:29:48.143Z,90.73
2017-09-15T01:30:29.306Z,90.83
2017-09-15T01:31:09.882Z,90.93
2017-09-15T01:31:50.453Z,90.64
2017-09-15T01:32:32.106Z,90.64
2017-09-15T01:33:13.079Z,90.83
2017-09-15T01:33:56.084Z,90.64
2017-09-15T01:34:39.105Z,90.64
2017-09-15T01:35:21.612Z,91.21
2017-09-15T01:36:03.536Z,91.31
2017-09-15T01:36:47.841Z,91.12
2017-09-15T01:37:28.399Z,91.12
2017-09-15T01:38:09.391Z,91.12
2017-09-15T01:38:51.195Z,91.5
2017-09-15T01:39:31.752Z,91.41
2017-09-15T01:40:18.143Z,91.41
2017-09-15T01:40:57.852Z,91.21
2017-09-15T01:41:38.421Z,91.5
2017-09-15T01:42:22.590Z,91.21
2017-09-15T01:43:04.139Z,91.5
2017-09-15T01:43:47.630Z,91.6
2017-09-15T01:44:28.220Z,90.83
2017-09-15T01:45:08.809Z,90.83
2017-09-15T01:45:50.574Z,90.55
2017-09-15T01:46:34.090Z,90.73
2017-09-15T01:47:14.564Z,90.64
2017-09-15T01:47:56.268Z,91.21
2017-09-15T01:48:38.095Z,91.02
2017-09-15T01:49:18.731Z,91.02
2017-09-15T01:49:59.297Z,91.12
2017-09-15T01:50:39.875Z,90.64
2017-09-15T01:51:22.661Z,90.93
2017-09-15T01:52:04.608Z,90.36
2017-09-15T01:52:46.644Z,90.55
2017-09-15T01:53:30.135Z,90.93
2017-09-15T01:54:09.797Z,90.64
2017-09-15T01:54:50.363Z,90.93
2017-09-15T01:55:31.334Z,90.64
2017-09-15T01:56:13.140Z,90.93
2017-09-15T01:56:55.596Z,90.64
2017-09-15T01:57:38.427Z,90.36
2017-09-15T01:58:19.008Z,90.83
2017-09-15T01:59:03.135Z,90.64
2017-09-15T01:59:42.858Z,90.93
2017-09-15T02:00:23.425Z,91.02
2017-09-15T02:01:03.994Z,90.45
2017-09-15T02:01:44.555Z,90.36
2017-09-15T02:02:25.148Z,90.64
2017-09-15T02:03:05.753Z,90.55
2017-09-15T02:03:46.314Z,90.55
2017-09-15T02:04:26.876Z,90.45
2017-09-15T02:05:08.604Z,90.26
2017-09-15T02:05:49.164Z,90.83
2017-09-15T02:06:29.715Z,90.83
2017-09-15T02:07:10.289Z,90.73
2017-09-15T02:07:50.865Z,90.64
2017-09-15T02:08:31.445Z,90.93
2017-09-15T02:09:12.168Z,90.64
2017-09-15T02:09:52.734Z,91.12
2017-09-15T02:10:33.345Z,90.83
2017-09-15T02:11:13.908Z,90.93
2017-09-15T02:11:54.478Z,91.5
2017-09-15T02:12:35.059Z,91.5
2017-09-15T02:13:15.636Z,91.21
2017-09-15T02:13:56.294Z,91.21
2017-09-15T02:14:36.879Z,91.41
2017-09-15T02:15:17.464Z,91.5
2017-09-15T02:15:58.316Z,91.5
2017-09-15T02:16:38.805Z,91.78
2017-09-15T02:17:19.368Z,91.6
2017-09-15T02:17:59.941Z,91.6
2017-09-15T02:18:40.500Z,91.78
2017-09-15T02:19:21.069Z,91.69
2017-09-15T02:20:01.644Z,91.69
2017-09-15T02:20:42.200Z,91.69
2017-09-15T02:21:22.775Z,91.6
2017-09-15T02:22:03.359Z,91.78
2017-09-15T02:22:43.905Z,91.5
2017-09-15T02:23:24.487Z,91.21
2017-09-15T02:24:05.062Z,91.21
2017-09-15T02:24:45.623Z,91.88
2017-09-15T02:25:26.179Z,91.6
2017-09-15T02:26:06.891Z,91.69
2017-09-15T02:26:47.390Z,92.26
2017-09-15T02:27:27.986Z,91.88
2017-09-15T02:28:08.526Z,92.07
2017-09-15T02:28:49.109Z,91.88
2017-09-15T02:29:29.677Z,91.69
2017-09-15T02:30:11.098Z,91.69
2017-09-15T02:30:51.659Z,91.6
2017-09-15T02:31:32.224Z,91.78
2017-09-15T02:32:12.785Z,91.78
2017-09-15T02:32:53.454Z,91.78
2017-09-15T02:33:34.012Z,91.5
2017-09-15T02:34:14.578Z,92.17
2017-09-15T02:34:55.135Z,91.6
2017-09-15T02:35:35.705Z,91.78
2017-09-15T02:36:16.306Z,91.6
2017-09-15T02:36:56.857Z,91.5
2017-09-15T02:37:37.409Z,91.41
2017-09-15T02:38:18.084Z,91.69
2017-09-15T02:38:58.650Z,91.6
2017-09-15T02:39:39.231Z,91.78
2017-09-15T02:40:19.794Z,91.41
2017-09-15T02:41:00.350Z,91.41
2017-09-15T02:41:41.069Z,91.88
2017-09-15T02:42:21.633Z,91.88
2017-09-15T02:43:02.210Z,91.5
2017-09-15T02:43:42.780Z,91.78
2017-09-15T02:44:23.340Z,91.31
2017-09-15T02:45:04.013Z,91.12
2017-09-15T02:45:44.569Z,91.69
2017-09-15T02:46:25.175Z,91.78
2017-09-15T02:47:05.766Z,91.78
2017-09-15T02:47:46.332Z,91.45
2017-09-15T02:48:26.887Z,91.55
2017-09-15T02:49:08.371Z,91.41
2017-09-15T02:49:48.296Z,91.26
2017-09-15T02:50:28.864Z,91.36
2017-09-15T02:51:09.429Z,91.16
2017-09-15T02:51:50.119Z,90.93
2017-09-15T02:52:30.682Z,91.02
2017-09-15T02:53:11.244Z,91.26
2017-09-15T02:53:51.804Z,91.31
2017-09-15T02:54:32.364Z,91.02
2017-09-15T02:55:12.947Z,91.12
2017-09-15T02:55:53.505Z,91.45
2017-09-15T02:56:34.075Z,91.07
2017-09-15T02:57:14.653Z,90.64
2017-09-15T02:57:55.207Z,90.69
2017-09-15T02:58:35.763Z,90.93
2017-09-15T02:59:16.331Z,91.07
2017-09-15T02:59:56.901Z,91.45
2017-09-15T03:00:37.524Z,91.36
2017-09-15T03:01:18.083Z,91.45
2017-09-15T03:01:58.647Z,91.21
2017-09-15T03:02:39.216Z,91.12
2017-09-15T03:03:19.777Z,91.12
2017-09-15T03:04:00.509Z,91.16
2017-09-15T03:04:41.007Z,91.21
2017-09-15T03:05:21.560Z,91.26
2017-09-15T03:06:02.137Z,91.21
2017-09-15T03:06:42.788Z,91.5
2017-09-15T03:07:23.352Z,91.02
2017-09-15T03:08:03.913Z,90.97
2017-09-15T03:08:44.644Z,91.26
2017-09-15T03:09:25.197Z,91.21
2017-09-15T03:10:05.759Z,91.26
2017-09-15T03:10:46.326Z,91.45
2017-09-15T03:11:26.889Z,91.5
2017-09-15T03:12:07.859Z,91.26
2017-09-15T03:12:48.422Z,91.07
2017-09-15T03:13:29.006Z,91.16
2017-09-15T03:14:09.562Z,91.26
2017-09-15T03:14:50.150Z,91.55
2017-09-15T03:15:30.707Z,91.45
2017-09-15T03:16:11.263Z,91.26
2017-09-15T03:16:51.831Z,91.36
2017-09-15T03:17:32.411Z,91.16
2017-09-15T03:18:12.992Z,91.45
2017-09-15T03:18:53.554Z,91.26
2017-09-15T03:19:34.113Z,91.16
2017-09-15T03:20:14.690Z,91.07
2017-09-15T03:20:55.247Z,91.16
2017-09-15T03:21:35.823Z,91.45
2017-09-15T03:22:16.946Z,91.07
2017-09-15T03:22:57.623Z,91.55
2017-09-15T03:23:38.212Z,91.55
2017-09-15T03:24:18.803Z,91.26
2017-09-15T03:24:59.378Z,91.45
2017-09-15T03:25:39.930Z,91.45
2017-09-15T03:26:21.065Z,91.55
2017-09-15T03:27:01.627Z,91.36
2017-09-15T03:27:42.206Z,91.45
2017-09-15T03:28:22.825Z,91.36
2017-09-15T03:29:03.392Z,91.26
2017-09-15T03:29:43.961Z,91.45
2017-09-15T03:30:24.516Z,91.26
2017-09-15T03:31:05.108Z,91.55
2017-09-15T03:31:46.854Z,91.55
2017-09-15T03:32:27.439Z,91.16
2017-09-15T03:33:08.583Z,91.07
2017-09-15T03:33:49.148Z,91.26
2017-09-15T03:34:29.726Z,91.26
2017-09-15T03:35:10.292Z,90.97
2017-09-15T03:35:51.124Z,91.26
2017-09-15T03:36:31.705Z,90.97
2017-09-15T03:37:12.295Z,90.97
2017-09-15T03:37:52.859Z,90.88
2017-09-15T03:38:33.418Z,91.26
2017-09-15T03:39:13.992Z,91.45
2017-09-15T03:39:54.568Z,91.26
2017-09-15T03:40:35.133Z,91.36
2017-09-15T03:41:15.709Z,91.07
2017-09-15T03:41:56.475Z,91.26
2017-09-15T03:42:37.059Z,91.07
2017-09-15T03:43:17.625Z,90.78
2017-09-15T03:43:58.188Z,90.5
2017-09-15T03:44:38.762Z,90.59
2017-09-15T03:45:19.353Z,90.5
2017-09-15T03:45:59.909Z,90.5
2017-09-15T03:46:40.467Z,90.88
2017-09-15T03:47:21.012Z,90.78
2017-09-15T03:48:01.586Z,90.59
2017-09-15T03:48:42.144Z,90.88
2017-09-15T03:49:22.714Z,90.59
2017-09-15T03:50:03.281Z,90.69
2017-09-15T03:50:43.858Z,90.69
2017-09-15T03:51:24.455Z,90.59
2017-09-15T03:52:05.307Z,90.5
2017-09-15T03:52:45.728Z,90.59
2017-09-15T03:53:26.325Z,90.59
2017-09-15T03:54:06.895Z,90.69
2017-09-15T03:54:47.447Z,90.97
2017-09-15T03:55:28.015Z,90.78
2017-09-15T03:56:08.577Z,90.97
2017-09-15T03:56:49.139Z,90.78
2017-09-15T03:57:29.735Z,90.59
2017-09-15T03:58:10.290Z,90.4
2017-09-15T03:58:50.884Z,90.69
2017-09-15T03:59:31.474Z,90.4
2017-09-15T04:00:12.231Z,90.5
2017-09-15T04:00:52.781Z,90.5
2017-09-15T04:01:33.351Z,90.88
2017-09-15T04:02:13.925Z,90.59
2017-09-15T04:02:54.477Z,90.31
2017-09-15T04:03:35.155Z,90.5
2017-09-15T04:04:15.732Z,90.69
2017-09-15T04:04:56.292Z,90.59
2017-09-15T04:05:36.862Z,90.5
2017-09-15T04:06:17.428Z,90.31
2017-09-15T04:06:58.027Z,90.5
2017-09-15T04:07:38.611Z,90.69
2017-09-15T04:08:19.174Z,90.59
2017-09-15T04:09:00.149Z,90.59
2017-09-15T04:09:40.712Z,90.59
2017-09-15T04:10:21.288Z,90.97
2017-09-15T04:11:01.856Z,90.59
2017-09-15T04:11:42.425Z,90.59
2017-09-15T04:12:22.981Z,90.4
2017-09-15T04:13:03.563Z,90.59
2017-09-15T04:13:44.123Z,90.5
2017-09-15T04:14:24.715Z,90.5
2017-09-15T04:15:05.259Z,90.69
2017-09-15T04:15:45.816Z,90.31
2017-09-15T04:16:26.408Z,90.4
2017-09-15T04:17:06.981Z,90.31
2017-09-15T04:17:47.539Z,90.69
2017-09-15T04:18:28.106Z,90.31
2017-09-15T04:19:08.681Z,90.31
2017-09-15T04:19:49.241Z,90.4
2017-09-15T04:20:29.808Z,90.4
2017-09-15T04:21:10.395Z,90.5
2017-09-15T04:21:50.975Z,90.21
2017-09-15T04:22:31.579Z,90.59
2017-09-15T04:23:12.199Z,89.92
2017-09-15T04:23:52.734Z,90.31
2017-09-15T04:24:33.297Z,90.31
2017-09-15T04:25:13.870Z,90.31
2017-09-15T04:25:54.489Z,89.92
2017-09-15T04:26:35.093Z,90.88
2017-09-15T04:27:15.653Z,90.69
2017-09-15T04:27:56.222Z,90.59
2017-09-15T04:28:36.801Z,90.4
2017-09-15T04:29:17.368Z,90.69
2017-09-15T04:29:57.946Z,90.31
2017-09-15T04:30:38.542Z,90.5
2017-09-15T04:31:19.301Z,90.5
2017-09-15T04:31:59.871Z,90.4
2017-09-15T04:32:40.436Z,90.88
2017-09-15T04:33:21.003Z,90.02
2017-09-15T04:34:01.647Z,90.11
2017-09-15T04:34:42.212Z,90.21
2017-09-15T04:35:22.815Z,90.31
2017-09-15T04:36:03.506Z,90.21
2017-09-15T04:36:44.083Z,90.11
2017-09-15T04:37:24.643Z,89.92
2017-09-15T04:38:05.225Z,90.21
2017-09-15T04:38:45.777Z,89.92
2017-09-15T04:39:26.342Z,90.11
2017-09-15T04:40:06.898Z,90.11
2017-09-15T04:40:47.466Z,90.11
2017-09-15T04:41:28.034Z,89.73
2017-09-15T04:42:08.600Z,89.73
2017-09-15T04:42:49.186Z,89.64
2017-09-15T04:43:29.734Z,89.64
2017-09-15T04:44:10.311Z,89.73
2017-09-15T04:44:50.938Z,89.73
2017-09-15T04:45:31.525Z,89.73
2017-09-15T04:46:12.079Z,89.92
2017-09-15T04:46:52.652Z,89.92
2017-09-15T04:47:33.227Z,89.64
2017-09-15T04:48:13.890Z,89.73
2017-09-15T04:48:54.448Z,89.73
2017-09-15T04:49:35.046Z,89.73
2017-09-15T04:50:15.628Z,89.92
2017-09-15T04:50:56.408Z,89.25
2017-09-15T04:51:37.013Z,89.06
2017-09-15T04:52:17.593Z,89.35
2017-09-15T04:52:58.166Z,89.83
2017-09-15T04:53:38.735Z,89.16
2017-09-15T04:54:19.311Z,89.16
2017-09-15T04:54:59.876Z,89.06
2017-09-15T04:55:40.447Z,89.35
2017-09-15T04:56:21.011Z,89.73
2017-09-15T04:57:01.563Z,89.73
2017-09-15T04:57:42.161Z,89.54
2017-09-15T04:58:22.742Z,89.25
2017-09-15T04:59:03.316Z,89.73
2017-09-15T04:59:43.887Z,88.97
2017-09-15T05:00:24.447Z,89.06
2017-09-15T05:01:05.055Z,89.16
2017-09-15T05:01:45.614Z,89.54
2017-09-15T05:02:26.176Z,89.73
2017-09-15T05:03:06.738Z,89.64
2017-09-15T05:03:47.315Z,89.45
2017-09-15T05:04:27.883Z,89.45
2017-09-15T05:05:08.445Z,89.73
2017-09-15T05:05:49.078Z,89.83
2017-09-15T05:06:29.663Z,89.73
2017-09-15T05:07:10.214Z,89.06
2017-09-15T05:07:50.776Z,89.83
2017-09-15T05:08:31.331Z,89.73
2017-09-15T05:09:11.888Z,89.73
2017-09-15T05:09:52.478Z,89.54
2017-09-15T05:10:33.026Z,89.73
2017-09-15T05:11:13.586Z,89.73
2017-09-15T05:11:54.148Z,89.73
2017-09-15T05:12:34.713Z,89.64
2017-09-15T05:13:15.278Z,89.73
2017-09-15T05:13:55.841Z,89.64
2017-09-15T05:14:36.397Z,89.83
2017-09-15T05:15:17.019Z,89.64
2017-09-15T05:15:57.586Z,89.64
2017-09-15T05:16:38.143Z,89.64
2017-09-15T05:17:18.709Z,89.64
2017-09-15T05:17:59.267Z,89.16
2017-09-15T05:18:39.839Z,89.25
2017-09-15T05:19:20.411Z,89.92
2017-09-15T05:20:00.974Z,89.16
2017-09-15T05:20:41.552Z,89.73
2017-09-15T05:21:22.112Z,89.54
2017-09-15T05:22:02.664Z,89.35
2017-09-15T05:22:43.253Z,89.73
2017-09-15T05:23:23.823Z,89.73
2017-09-15T05:24:04.391Z,89.64
2017-09-15T05:24:44.963Z,89.54
2017-09-15T05:25:25.529Z,89.25
2017-09-15T05:26:06.100Z,89.35
2017-09-15T05:26:46.681Z,88.73
2017-09-15T05:27:27.239Z,89.49
2017-09-15T05:28:07.798Z,89.35
2017-09-15T05:28:48.361Z,89.45
2017-09-15T05:29:28.932Z,88.97
2017-09-15T05:30:09.492Z,89.06
2017-09-15T05:30:50.048Z,88.92
2017-09-15T05:31:30.607Z,89.2
2017-09-15T05:32:11.174Z,89.16
2017-09-15T05:32:51.740Z,88.59
2017-09-15T05:33:32.324Z,88.68
2017-09-15T05:34:12.890Z,89.06
2017-09-15T05:34:53.446Z,88.78
2017-09-15T05:35:33.996Z,88.92
2017-09-15T05:36:14.552Z,89.45
2017-09-15T05:36:55.104Z,89.49
2017-09-15T05:37:35.671Z,89.06
2017-09-15T05:38:16.233Z,88.92
2017-09-15T05:38:56.807Z,89.16
2017-09-15T05:39:37.414Z,88.97
2017-09-15T05:40:17.976Z,88.92
2017-09-15T05:40:58.545Z,88.4
2017-09-15T05:41:39.109Z,88.54
2017-09-15T05:42:19.666Z,88.25
2017-09-15T05:43:00.227Z,88.63
2017-09-15T05:43:40.792Z,88.54
2017-09-15T05:44:21.354Z,88.34
2017-09-15T05:45:01.913Z,88.25
2017-09-15T05:45:42.515Z,88.54
2017-09-15T05:46:23.078Z,88.54
2017-09-15T05:47:03.644Z,88.54
2017-09-15T05:47:44.204Z,88.44
2017-09-15T05:48:24.767Z,87.96
2017-09-15T05:49:05.327Z,88.15
2017-09-15T05:49:45.904Z,88.25
2017-09-15T05:50:26.480Z,87.96
2017-09-15T05:51:07.042Z,87.77
2017-09-15T05:51:47.613Z,87.87
2017-09-15T05:52:28.183Z,87.96
2017-09-15T05:53:08.741Z,87.68
2017-09-15T05:53:49.300Z,87.68
2017-09-15T05:54:29.882Z,87.58
2017-09-15T05:55:10.455Z,87.48
2017-09-15T05:55:51.014Z,87.58
2017-09-15T05:56:31.592Z,87.87
2017-09-15T05:57:12.172Z,87.87
2017-09-15T05:57:52.723Z,87.96
2017-09-15T05:58:33.287Z,88.25
2017-09-15T05:59:13.844Z,87.96
2017-09-15T05:59:54.422Z,87.44
2017-09-15T06:00:34.997Z,87.58
2017-09-15T06:01:15.537Z,87.87
2017-09-15T06:01:56.091Z,87.58
2017-09-15T06:02:36.644Z,87.68
2017-09-15T06:03:17.214Z,87.68
2017-09-15T06:03:58.320Z,87.77
2017-09-15T06:04:38.889Z,87.77
2017-09-15T06:05:19.542Z,87.58
2017-09-15T06:06:00.048Z,87.77
2017-09-15T06:06:40.630Z,87.77
2017-09-15T06:07:21.170Z,87.58
2017-09-15T06:08:01.735Z,87.58
2017-09-15T06:08:42.306Z,87.39
2017-09-15T06:09:22.873Z,87.2
2017-09-15T06:10:03.459Z,87.29
2017-09-15T06:10:44.053Z,87.48
2017-09-15T06:11:24.598Z,87.29
2017-09-15T06:12:05.167Z,87.48
2017-09-15T06:12:45.727Z,87.58
2017-09-15T06:13:26.290Z,87.1
2017-09-15T06:14:06.862Z,87.39
2017-09-15T06:14:47.418Z,87.2
2017-09-15T06:15:27.982Z,86.82
2017-09-15T06:16:08.560Z,87.2
2017-09-15T06:16:49.133Z,86.72
2017-09-15T06:17:29.683Z,86.72
2017-09-15T06:18:10.254Z,86.82
2017-09-15T06:18:50.871Z,86.82
2017-09-15T06:19:31.465Z,86.91
2017-09-15T06:20:12.060Z,87.39
2017-09-15T06:20:52.633Z,86.91
2017-09-15T06:21:33.206Z,86.82
2017-09-15T06:22:13.783Z,86.43
2017-09-15T06:22:54.396Z,86.53
2017-09-15T06:23:34.952Z,86.82
2017-09-15T06:24:15.519Z,86.63
2017-09-15T06:24:56.101Z,86.43
2017-09-15T06:25:36.669Z,86.53
2017-09-15T06:26:17.238Z,86.05
2017-09-15T06:26:57.801Z,86.63
2017-09-15T06:27:38.407Z,86.53
2017-09-15T06:28:18.967Z,86.53
2017-09-15T06:28:59.535Z,86.43
2017-09-15T06:29:40.104Z,86.43
2017-09-15T06:30:20.696Z,86.53
2017-09-15T06:31:01.256Z,86.15
2017-09-15T06:31:41.817Z,86.63
2017-09-15T06:32:22.374Z,86.63
2017-09-15T06:33:02.938Z,86.43
2017-09-15T06:33:43.498Z,87.01
2017-09-15T06:34:24.079Z,86.34
2017-09-15T06:35:04.698Z,86.34
2017-09-15T06:35:45.255Z,86.53
2017-09-15T06:36:25.886Z,86.63
2017-09-15T06:37:06.452Z,86.63
2017-09-15T06:37:47.015Z,86.53
2017-09-15T06:38:27.572Z,86.43
2017-09-15T06:39:08.121Z,86.34
2017-09-15T06:39:48.722Z,86.63
2017-09-15T06:40:30.218Z,86.63
2017-09-15T06:41:10.841Z,85.96
2017-09-15T06:41:51.421Z,86.15
2017-09-15T06:42:31.987Z,86.63
2017-09-15T06:43:12.541Z,85.77
2017-09-15T06:43:53.099Z,85.77
2017-09-15T06:44:33.668Z,86.63
2017-09-15T06:45:14.212Z,86.72
2017-09-15T06:45:54.772Z,86.43
2017-09-15T06:46:35.332Z,86.43
2017-09-15T06:47:15.901Z,86.53
2017-09-15T06:47:56.470Z,86.63
2017-09-15T06:48:37.039Z,86.63
2017-09-15T06:49:17.597Z,86.43
2017-09-15T06:49:58.167Z,86.15
2017-09-15T06:50:38.740Z,86.34
2017-09-15T06:51:19.304Z,86.53
2017-09-15T06:51:59.881Z,86.05
2017-09-15T06:52:40.458Z,86.24
2017-09-15T06:53:21.014Z,85.67
2017-09-15T06:54:01.578Z,85.67
2017-09-15T06:54:42.134Z,86.05
2017-09-15T06:55:22.797Z,85.77
2017-09-15T06:56:03.405Z,85.62
2017-09-15T06:56:43.965Z,85.1
2017-09-15T06:57:24.552Z,85.1
2017-09-15T06:58:05.108Z,85.38
2017-09-15T06:58:45.669Z,85.9
2017-09-15T06:59:26.243Z,85.62
2017-09-15T07:00:06.817Z,85.9
2017-09-15T07:00:47.424Z,86.1
2017-09-15T07:01:27.984Z,85.42
2017-09-15T07:02:08.567Z,84.76
2017-09-15T07:02:49.163Z,84.28
2017-09-15T07:03:29.736Z,84.09
2017-09-15T07:04:10.337Z,83.61
2017-09-15T07:04:50.904Z,82.94
2017-09-15T07:05:31.490Z,83.33
2017-09-15T07:06:12.107Z,83.08
2017-09-15T07:06:52.630Z,82.7
2017-09-15T07:07:33.190Z,82.51
2017-09-15T07:08:13.752Z,82.12
2017-09-15T07:08:54.337Z,81.45
2017-09-15T07:09:34.935Z,81.26
2017-09-15T07:10:15.486Z,80.5
2017-09-15T07:10:56.121Z,80.88
2017-09-15T07:11:36.794Z,80.98
2017-09-15T07:12:17.353Z,81.65
2017-09-15T07:12:57.926Z,82.12
2017-09-15T07:13:38.519Z,82.41
2017-09-15T07:14:19.114Z,81.45
2017-09-15T07:14:59.685Z,81.36
2017-09-15T07:15:40.250Z,80.98
2017-09-15T07:16:20.829Z,80.5
2017-09-15T07:17:01.486Z,81.11
2017-09-15T07:17:42.057Z,80.92
2017-09-15T07:18:22.621Z,80.82
2017-09-15T07:19:03.214Z,80.35
2017-09-15T07:19:43.780Z,79.49
2017-09-15T07:20:24.359Z,79.68
2017-09-15T07:21:04.905Z,79.68
2017-09-15T07:21:45.527Z,79.72
2017-09-15T07:22:26.086Z,79.14
2017-09-15T07:23:06.686Z,78.47
2017-09-15T07:23:47.261Z,77.9
2017-09-15T07:24:27.828Z,78.28
2017-09-15T07:25:08.395Z,77.23
2017-09-15T07:25:48.973Z,77.75
2017-09-15T07:26:29.542Z,77.26
2017-09-15T07:27:10.125Z,75.96
2017-09-15T07:27:52.189Z,75.01
2017-09-15T07:28:32.771Z,73.86
2017-09-15T07:29:13.766Z,73.38
2017-09-15T07:29:54.527Z,74.08
2017-09-15T07:30:35.462Z,74.08
2017-09-15T07:31:16.033Z,73.22
2017-09-15T07:31:56.835Z,72.2
2017-09-15T07:32:37.574Z,71.15
2017-09-15T07:33:18.140Z,71.21
2017-09-15T07:33:58.748Z,71.31
2017-09-15T07:34:39.351Z,70.67
2017-09-15T07:35:19.960Z,70.76
2017-09-15T07:36:00.535Z,70.96
2017-09-15T07:36:41.118Z,71.44
2017-09-15T07:37:21.736Z,70.61
2017-09-15T07:38:02.425Z,69.23
2017-09-15T07:38:43.174Z,68.27
2017-09-15T07:39:23.784Z,68.85
2017-09-15T07:40:04.369Z,70
2017-09-15T07:40:45.052Z,70.09
2017-09-15T07:41:25.616Z,69.36
2017-09-15T07:42:06.181Z,68.12
2017-09-15T07:42:47.007Z,67.73
2017-09-15T07:43:27.562Z,67.16
2017-09-15T07:44:08.124Z,67.57
2017-09-15T07:44:48.743Z,66.8
2017-09-15T07:45:29.314Z,66.42
2017-09-15T07:46:09.876Z,66.52
2017-09-15T07:46:50.489Z,65.65
2017-09-15T07:47:31.097Z,65.17
2017-09-15T07:48:11.667Z,66.42
2017-09-15T07:48:52.267Z,66.9
2017-09-15T07:49:32.845Z,65.17
2017-09-15T07:50:13.407Z,64.5
2017-09-15T07:50:54.033Z,64.98
2017-09-15T07:51:34.604Z,64.5
2017-09-15T07:52:15.210Z,65.62
2017-09-15T07:52:55.780Z,66.39
2017-09-15T07:53:36.351Z,66.19
2017-09-15T07:54:16.921Z,66.29
2017-09-15T07:54:57.511Z,66.58
2017-09-15T07:55:38.115Z,66.58
2017-09-15T07:56:18.703Z,66.67
2017-09-15T07:56:59.295Z,67.86
2017-09-15T07:57:39.869Z,66.8
2017-09-15T07:58:20.447Z,66.61
2017-09-15T07:59:01.020Z,65.94
2017-09-15T07:59:41.606Z,65.65
2017-09-15T08:00:22.192Z,64.89
2017-09-15T08:01:02.769Z,66.13
2017-09-15T08:01:43.343Z,66.23
2017-09-15T08:02:23.933Z,65.08
2017-09-15T08:03:04.498Z,65.75
2017-09-15T08:03:45.071Z,65.36
2017-09-15T08:04:25.637Z,66.61
2017-09-15T08:05:06.207Z,66.52
2017-09-15T08:05:46.803Z,64.59
2017-09-15T08:06:27.378Z,64.31
2017-09-15T08:07:07.953Z,64.69
2017-09-15T08:07:48.550Z,64.5
2017-09-15T08:08:29.255Z,65.17
2017-09-15T08:09:09.818Z,64.4
2017-09-15T08:09:50.396Z,64.59
2017-09-15T08:10:30.992Z,65.17
2017-09-15T08:11:11.575Z,66.33
2017-09-15T08:11:52.168Z,66.03
2017-09-15T08:12:32.768Z,66.03
2017-09-15T08:13:13.340Z,64.89
2017-09-15T08:13:53.919Z,65.08
2017-09-15T08:14:34.499Z,65.08
2017-09-15T08:15:15.068Z,64.59
2017-09-15T08:15:55.628Z,65.17
2017-09-15T08:16:36.192Z,65.56
2017-09-15T08:17:16.769Z,64.59
2017-09-15T08:17:57.337Z,64.59
2017-09-15T08:18:37.930Z,64.4
2017-09-15T08:19:18.502Z,65.17
2017-09-15T08:19:59.083Z,66.52
2017-09-15T08:20:39.643Z,66.23
2017-09-15T08:21:20.222Z,66.33
2017-09-15T08:22:00.805Z,66.23
2017-09-15T08:22:41.404Z,66.52
2017-09-15T08:23:21.981Z,66.13
2017-09-15T08:24:02.564Z,65.11
2017-09-15T08:24:43.140Z,64.53
2017-09-15T08:25:23.706Z,65.88
2017-09-15T08:26:04.273Z,66.16
2017-09-15T08:26:44.862Z,64.92
2017-09-15T08:27:25.428Z,63.79
2017-09-15T08:28:06.000Z,65.2
2017-09-15T08:28:46.573Z,63.41
2017-09-15T08:29:27.137Z,63.7
2017-09-15T08:30:07.699Z,62.81
2017-09-15T08:30:48.280Z,63.57
2017-09-15T08:31:28.845Z,63.57
2017-09-15T08:32:09.406Z,63.38
2017-09-15T08:32:49.992Z,63.57
2017-09-15T08:33:30.552Z,64.72
2017-09-15T08:34:11.150Z,63.76
2017-09-15T08:34:51.719Z,63.38
2017-09-15T08:35:32.307Z,63.28
2017-09-15T08:36:12.893Z,62.52
2017-09-15T08:36:53.460Z,62.19
2017-09-15T08:37:34.022Z,62.68
2017-09-15T08:38:14.617Z,62.48
2017-09-15T08:38:55.308Z,63.16
2017-09-15T08:39:35.903Z,63.42
2017-09-15T08:40:16.509Z,63.7
2017-09-15T08:40:57.082Z,64.09
2017-09-15T08:41:37.658Z,63.99
2017-09-15T08:42:18.222Z,64.43
2017-09-15T08:42:58.812Z,64.92
2017-09-15T08:43:39.384Z,65.3
2017-09-15T08:44:19.962Z,65.39
2017-09-15T08:45:00.584Z,65.39
2017-09-15T08:45:41.158Z,66.06